createdAt,value
2018-10-06T00:00:19.823Z,10.36
2018-10-06T00:01:19.736Z,10.44
2018-10-06T00:02:19.664Z,10.44
2018-10-06T00:03:19.576Z,10.40
2018-10-06T00:04:19.499Z,10.27
2018-10-06T00:05:19.411Z,10.23
2018-10-06T00:06:19.325Z,10.15
2018-10-06T00:07:19.238Z,10.25
2018-10-06T00:08:19.161Z,10.12
2018-10-06T00:09:19.075Z,10.12
2018-10-06T00:10:19.000Z,10.14
2018-10-06T00:11:18.915Z,10.02
2018-10-06T00:12:18.825Z,10.09
2018-10-06T00:13:18.750Z,10.07
2018-10-06T00:14:18.662Z,10.02
2018-10-06T00:15:18.576Z,9.94
2018-10-06T00:16:18.501Z,10.04
2018-10-06T00:17:18.413Z,9.99
2018-10-06T00:18:18.338Z,10.02
2018-10-06T00:19:18.252Z,9.94
2018-10-06T00:20:18.164Z,9.93
2018-10-06T00:21:18.088Z,9.89
2018-10-06T00:22:18.004Z,9.91
2018-10-06T00:23:17.927Z,9.89
2018-10-06T00:24:17.839Z,9.90
2018-10-06T00:25:17.752Z,9.91
2018-10-06T00:26:17.676Z,9.90
2018-10-06T00:27:17.602Z,9.89
2018-10-06T00:28:17.502Z,9.89
2018-10-06T00:29:17.428Z,9.78
2018-10-06T00:30:17.342Z,9.76
2018-10-06T00:31:17.265Z,9.84
2018-10-06T00:32:17.178Z,9.81
2018-10-06T00:33:17.090Z,9.83
2018-10-06T00:34:17.017Z,9.83
2018-10-06T00:35:16.928Z,9.83
2018-10-06T00:36:16.854Z,9.83
2018-10-06T00:37:16.772Z,9.83
2018-10-06T00:38:16.678Z,9.81
2018-10-06T00:39:16.605Z,9.75
2018-10-06T00:40:16.516Z,9.75
2018-10-06T00:41:16.430Z,9.71
2018-10-06T00:42:16.353Z,9.69
2018-10-06T00:43:16.266Z,9.71
2018-10-06T00:44:16.182Z,9.72
2018-10-06T00:45:16.104Z,9.79
2018-10-06T00:46:16.016Z,9.84
2018-10-06T00:47:16.029Z,9.94
2018-10-06T00:48:15.855Z,9.91
2018-10-06T00:49:15.766Z,9.89
2018-10-06T00:50:15.692Z,9.99
2018-10-06T00:51:15.604Z,10.04
2018-10-06T00:52:15.521Z,9.94
2018-10-06T00:53:15.441Z,10.05
2018-10-06T00:54:15.355Z,10.07
2018-10-06T00:55:15.281Z,10.08
2018-10-06T00:56:15.192Z,10.04
2018-10-06T00:57:15.106Z,10.05
2018-10-06T00:58:15.031Z,10.05
2018-10-06T00:59:14.945Z,10.02
2018-10-06T01:00:14.869Z,10.07
2018-10-06T01:01:14.781Z,10.07
2018-10-06T01:02:14.692Z,10.05
2018-10-06T01:03:14.618Z,9.99
2018-10-06T01:04:14.531Z,9.97
2018-10-06T01:05:14.445Z,10.01
2018-10-06T01:06:14.368Z,10.01
2018-10-06T01:07:14.281Z,10.05
2018-10-06T01:08:14.195Z,9.94
2018-10-06T01:09:14.118Z,9.97
2018-10-06T01:10:14.032Z,9.93
2018-10-06T01:11:13.957Z,10.02
2018-10-06T01:12:13.868Z,9.89
2018-10-06T01:13:13.781Z,10.04
2018-10-06T01:14:13.707Z,9.90
2018-10-06T01:15:13.619Z,9.87
2018-10-06T01:16:13.544Z,9.89
2018-10-06T01:17:13.460Z,9.87
2018-10-06T01:18:13.369Z,9.87
2018-10-06T01:19:13.297Z,9.87
2018-10-06T01:20:13.208Z,9.83
2018-10-06T01:21:13.121Z,9.83
2018-10-06T01:22:13.045Z,9.81
2018-10-06T01:23:12.958Z,9.75
2018-10-06T01:24:12.885Z,9.84
2018-10-06T01:25:12.796Z,9.87
2018-10-06T01:26:12.709Z,9.83
2018-10-06T01:27:12.645Z,9.71
2018-10-06T01:28:12.546Z,9.81
2018-10-06T01:29:12.460Z,9.71
2018-10-06T01:30:12.385Z,9.72
2018-10-06T01:31:12.296Z,9.75
2018-10-06T01:32:12.221Z,9.71
2018-10-06T01:33:12.135Z,9.74
2018-10-06T01:34:12.046Z,9.69
2018-10-06T01:35:11.972Z,9.68
2018-10-06T01:36:11.887Z,9.74
2018-10-06T01:37:11.798Z,9.76
2018-10-06T01:38:11.722Z,9.78
2018-10-06T01:39:11.635Z,9.76
2018-10-06T01:40:11.561Z,9.71
2018-10-06T01:41:11.474Z,9.66
2018-10-06T01:42:11.385Z,9.71
2018-10-06T01:43:11.311Z,9.64
2018-10-06T01:44:11.222Z,9.69
2018-10-06T01:45:11.136Z,9.61
2018-10-06T01:46:11.061Z,9.72
2018-10-06T01:47:10.973Z,9.61
2018-10-06T01:48:10.898Z,9.58
2018-10-06T01:49:10.812Z,9.64
2018-10-06T01:50:10.736Z,9.64
2018-10-06T01:51:10.685Z,9.64
2018-10-06T01:52:10.565Z,9.61
2018-10-06T01:53:10.474Z,9.64
2018-10-06T01:54:10.398Z,9.64
2018-10-06T01:55:10.312Z,9.58
2018-10-06T01:56:10.237Z,9.64
2018-10-06T01:57:10.149Z,9.54
2018-10-06T01:58:10.066Z,9.58
2018-10-06T01:59:09.987Z,9.51
2018-10-06T02:00:09.899Z,9.53
2018-10-06T02:01:09.813Z,9.51
2018-10-06T02:02:09.737Z,9.48
2018-10-06T02:03:09.649Z,9.53
2018-10-06T02:04:09.575Z,9.53
2018-10-06T02:05:09.487Z,9.51
2018-10-06T02:06:09.400Z,9.48
2018-10-06T02:07:09.324Z,9.48
2018-10-06T02:08:09.237Z,9.42
2018-10-06T02:09:09.151Z,9.42
2018-10-06T02:10:09.075Z,9.40
2018-10-06T02:11:08.989Z,9.43
2018-10-06T02:12:08.902Z,9.46
2018-10-06T02:13:08.825Z,9.36
2018-10-06T02:14:08.738Z,9.43
2018-10-06T02:15:08.665Z,9.40
2018-10-06T02:16:08.575Z,9.29
2018-10-06T02:17:08.490Z,9.28
2018-10-06T02:18:08.414Z,9.42
2018-10-06T02:19:08.330Z,9.36
2018-10-06T02:20:08.241Z,9.29
2018-10-06T02:21:08.164Z,9.39
2018-10-06T02:22:08.079Z,9.31
2018-10-06T02:23:08.014Z,9.24
2018-10-06T02:24:07.915Z,9.32
2018-10-06T02:25:07.826Z,9.18
2018-10-06T02:26:07.753Z,9.24
2018-10-06T02:27:07.666Z,9.31
2018-10-06T02:28:07.592Z,9.21
2018-10-06T02:29:07.502Z,9.29
2018-10-06T02:30:07.521Z,9.21
2018-10-06T02:31:07.341Z,9.21
2018-10-06T02:32:07.256Z,9.15
2018-10-06T02:33:07.167Z,9.13
2018-10-06T02:34:07.092Z,9.11
2018-10-06T02:35:07.003Z,9.11
2018-10-06T02:36:06.929Z,9.18
2018-10-06T02:37:06.842Z,9.02
2018-10-06T02:38:06.759Z,9.14
2018-10-06T02:39:06.666Z,9.14
2018-10-06T02:40:06.596Z,9.14
2018-10-06T02:41:06.506Z,9.15
2018-10-06T02:42:06.428Z,9.14
2018-10-06T02:43:06.347Z,9.15
2018-10-06T02:44:06.254Z,9.10
2018-10-06T02:45:06.179Z,9.14
2018-10-06T02:46:06.093Z,9.15
2018-10-06T02:47:06.020Z,9.13
2018-10-06T02:48:05.930Z,9.14
2018-10-06T02:49:05.847Z,9.20
2018-10-06T02:50:05.755Z,9.13
2018-10-06T02:51:05.694Z,9.17
2018-10-06T02:52:05.594Z,9.17
2018-10-06T02:53:05.518Z,9.15
2018-10-06T02:54:05.430Z,9.14
2018-10-06T02:55:05.346Z,9.14
2018-10-06T02:56:05.273Z,9.05
2018-10-06T02:57:05.180Z,9.05
2018-10-06T02:58:05.095Z,9.08
2018-10-06T02:59:05.019Z,9.14
2018-10-06T03:00:04.931Z,9.08
2018-10-06T03:01:04.848Z,9.05
2018-10-06T03:02:04.770Z,9.15
2018-10-06T03:03:04.683Z,9.11
2018-10-06T03:04:04.606Z,9.14
2018-10-06T03:05:04.520Z,9.14
2018-10-06T03:06:04.450Z,9.17
2018-10-06T03:07:04.405Z,9.14
2018-10-06T03:08:04.270Z,9.17
2018-10-06T03:09:04.181Z,9.11
2018-10-06T03:10:04.108Z,9.04
2018-10-06T03:11:04.020Z,9.18
2018-10-06T03:12:03.949Z,9.10
2018-10-06T03:13:03.856Z,9.17
2018-10-06T03:14:03.771Z,9.24
2018-10-06T03:15:03.683Z,9.17
2018-10-06T03:16:03.608Z,9.14
2018-10-06T03:17:03.521Z,9.17
2018-10-06T03:18:03.446Z,9.20
2018-10-06T03:19:03.360Z,9.11
2018-10-06T03:20:03.271Z,9.17
2018-10-06T03:21:03.195Z,9.24
2018-10-06T03:22:03.108Z,9.20
2018-10-06T03:23:03.081Z,9.23
2018-10-06T03:24:02.948Z,9.18
2018-10-06T03:25:02.861Z,9.17
2018-10-06T03:26:02.772Z,9.17
2018-10-06T03:27:02.697Z,9.18
2018-10-06T03:28:02.612Z,9.17
2018-10-06T03:29:02.522Z,9.13
2018-10-06T03:30:02.447Z,9.21
2018-10-06T03:31:02.359Z,9.17
2018-10-06T03:32:02.284Z,9.17
2018-10-06T03:33:02.198Z,9.20
2018-10-06T03:34:02.123Z,9.23
2018-10-06T03:35:02.034Z,9.18
2018-10-06T03:36:01.948Z,9.14
2018-10-06T03:37:01.859Z,9.21
2018-10-06T03:38:01.785Z,9.20
2018-10-06T03:39:01.697Z,9.15
2018-10-06T03:40:01.612Z,9.15
2018-10-06T03:41:01.536Z,9.17
2018-10-06T03:42:01.450Z,9.14
2018-10-06T03:43:01.375Z,9.14
2018-10-06T03:44:01.286Z,9.15
2018-10-06T03:45:01.198Z,9.15
2018-10-06T03:46:01.124Z,9.15
2018-10-06T03:47:01.036Z,9.14
2018-10-06T03:48:00.948Z,9.04
2018-10-06T03:49:00.874Z,9.15
2018-10-06T03:50:00.789Z,9.11
2018-10-06T03:51:00.699Z,9.17
2018-10-06T03:52:00.624Z,9.15
2018-10-06T03:53:00.550Z,9.05
2018-10-06T03:54:00.535Z,9.14
2018-10-06T03:55:00.376Z,9.14
2018-10-06T03:56:00.287Z,9.11
2018-10-06T03:57:00.200Z,9.02
2018-10-06T03:58:00.125Z,9.11
2018-10-06T03:59:00.039Z,9.05
2018-10-06T03:59:59.963Z,9.05
2018-10-06T04:00:59.876Z,9.01
2018-10-06T04:01:59.787Z,9.04
2018-10-06T04:02:59.726Z,9.04
2018-10-06T04:03:59.626Z,9.04
2018-10-06T04:04:59.537Z,9.10
2018-10-06T04:05:59.462Z,9.04
2018-10-06T04:06:59.376Z,9.01
2018-10-06T04:07:59.288Z,9.20
2018-10-06T04:08:59.214Z,9.13
2018-10-06T04:09:59.130Z,9.18
2018-10-06T04:10:59.039Z,9.31
2018-10-06T04:11:58.963Z,9.38
2018-10-06T04:12:58.878Z,9.43
2018-10-06T04:13:58.801Z,9.47
2018-10-06T04:14:58.715Z,9.51
2018-10-06T04:15:58.627Z,9.60
2018-10-06T04:16:58.555Z,9.48
2018-10-06T04:17:58.464Z,9.65
2018-10-06T04:18:58.378Z,9.68
2018-10-06T04:19:58.301Z,9.65
2018-10-06T04:20:58.214Z,9.69
2018-10-06T04:21:58.128Z,9.72
2018-10-06T04:22:58.053Z,9.79
2018-10-06T04:23:57.964Z,9.83
2018-10-06T04:24:57.879Z,9.87
2018-10-06T04:25:57.803Z,9.90
2018-10-06T04:26:57.714Z,9.87
2018-10-06T04:27:57.642Z,9.87
2018-10-06T04:28:57.553Z,9.91
2018-10-06T04:29:57.471Z,9.93
2018-10-06T04:30:57.390Z,9.94
2018-10-06T04:31:57.303Z,9.91
2018-10-06T04:32:57.215Z,9.90
2018-10-06T04:33:57.141Z,9.97
2018-10-06T04:34:57.054Z,9.90
2018-10-06T04:35:56.967Z,9.90
2018-10-06T04:36:56.892Z,9.89
2018-10-06T04:37:56.805Z,9.87
2018-10-06T04:38:56.729Z,9.90
2018-10-06T04:39:56.642Z,9.90
2018-10-06T04:40:56.555Z,9.83
2018-10-06T04:41:56.480Z,9.83
2018-10-06T04:42:56.393Z,9.81
2018-10-06T04:43:56.305Z,9.74
2018-10-06T04:44:56.234Z,9.78
2018-10-06T04:45:56.142Z,9.64
2018-10-06T04:46:56.056Z,9.58
2018-10-06T04:47:55.981Z,9.56
2018-10-06T04:48:55.892Z,9.64
2018-10-06T04:49:55.817Z,9.61
2018-10-06T04:50:55.732Z,9.60
2018-10-06T04:51:55.643Z,9.60
2018-10-06T04:52:55.585Z,9.54
2018-10-06T04:53:55.481Z,9.54
2018-10-06T04:54:55.393Z,9.56
2018-10-06T04:55:55.318Z,9.46
2018-10-06T04:56:55.231Z,9.42
2018-10-06T04:57:55.156Z,9.36
2018-10-06T04:58:55.070Z,9.38
2018-10-06T04:59:54.982Z,9.29
2018-10-06T05:00:54.907Z,9.33
2018-10-06T05:01:54.819Z,9.35
2018-10-06T05:02:54.732Z,9.40
2018-10-06T05:03:54.658Z,9.32
2018-10-06T05:04:54.569Z,9.32
2018-10-06T05:05:54.483Z,9.38
2018-10-06T05:06:54.406Z,9.40
2018-10-06T05:07:54.319Z,9.32
2018-10-06T05:08:54.233Z,9.33
2018-10-06T05:09:54.158Z,9.35
2018-10-06T05:10:54.082Z,9.38
2018-10-06T05:11:53.983Z,9.33
2018-10-06T05:12:53.909Z,9.28
2018-10-06T05:13:53.819Z,9.31
2018-10-06T05:14:53.745Z,9.31
2018-10-06T05:15:53.658Z,9.31
2018-10-06T05:16:53.571Z,9.32
2018-10-06T05:17:53.496Z,9.24
2018-10-06T05:18:53.408Z,9.31
2018-10-06T05:19:53.321Z,9.24
2018-10-06T05:20:53.246Z,9.31
2018-10-06T05:21:53.159Z,9.23
2018-10-06T05:22:53.073Z,9.20
2018-10-06T05:23:52.996Z,9.21
2018-10-06T05:24:52.909Z,9.28
2018-10-06T05:25:52.835Z,9.23
2018-10-06T05:26:52.747Z,9.23
2018-10-06T05:27:52.660Z,9.21
2018-10-06T05:28:52.586Z,9.28
2018-10-06T05:29:52.510Z,9.26
2018-10-06T05:30:52.412Z,9.38
2018-10-06T05:31:52.336Z,9.32
2018-10-06T05:32:52.247Z,9.42
2018-10-06T05:33:52.183Z,9.23
2018-10-06T05:34:52.089Z,9.32
2018-10-06T05:35:51.998Z,9.33
2018-10-06T05:36:51.926Z,9.46
2018-10-06T05:37:51.838Z,9.50
2018-10-06T05:38:51.748Z,9.40
2018-10-06T05:39:51.672Z,9.39
2018-10-06T05:40:51.587Z,9.43
2018-10-06T05:41:51.498Z,9.40
2018-10-06T05:42:51.423Z,9.42
2018-10-06T05:43:51.337Z,9.46
2018-10-06T05:44:51.249Z,9.60
2018-10-06T05:45:51.174Z,9.64
2018-10-06T05:46:51.087Z,9.61
2018-10-06T05:47:51.012Z,9.64
2018-10-06T05:48:50.924Z,9.64
2018-10-06T05:49:50.838Z,9.71
2018-10-06T05:50:50.763Z,9.74
2018-10-06T05:51:50.674Z,9.66
2018-10-06T05:52:50.591Z,9.68
2018-10-06T05:53:50.513Z,9.71
2018-10-06T05:54:50.425Z,9.79
2018-10-06T05:55:50.338Z,9.83
2018-10-06T05:56:50.263Z,9.75
2018-10-06T05:57:50.176Z,9.86
2018-10-06T05:58:50.102Z,9.89
2018-10-06T05:59:50.015Z,10.01
2018-10-06T06:00:49.929Z,10.04
2018-10-06T06:01:49.867Z,10.04
2018-10-06T06:02:49.763Z,9.99
2018-10-06T06:03:49.675Z,10.15
2018-10-06T06:04:49.602Z,10.08
2018-10-06T06:05:49.514Z,10.14
2018-10-06T06:06:49.431Z,10.15
2018-10-06T06:07:49.351Z,10.22
2018-10-06T06:08:49.264Z,10.17
2018-10-06T06:09:49.223Z,10.22
2018-10-06T06:10:49.101Z,10.32
2018-10-06T06:11:49.014Z,10.27
2018-10-06T06:12:48.943Z,10.30
2018-10-06T06:13:48.852Z,10.32
2018-10-06T06:14:48.764Z,10.45
2018-10-06T06:15:48.781Z,10.45
2018-10-06T06:16:48.602Z,10.38
2018-10-06T06:17:48.527Z,10.55
2018-10-06T06:18:48.441Z,10.52
2018-10-06T06:19:48.352Z,10.66
2018-10-06T06:20:48.279Z,10.53
2018-10-06T06:21:48.190Z,10.55
2018-10-06T06:22:48.158Z,10.66
2018-10-06T06:23:48.048Z,10.61
2018-10-06T06:24:47.941Z,10.76
2018-10-06T06:25:47.854Z,10.84
2018-10-06T06:26:47.778Z,10.78
2018-10-06T06:27:47.691Z,10.82
2018-10-06T06:28:47.617Z,10.85
2018-10-06T06:29:47.542Z,10.88
2018-10-06T06:30:47.447Z,10.94
2018-10-06T06:31:47.369Z,10.92
2018-10-06T06:32:47.278Z,10.97
2018-10-06T06:33:47.192Z,10.99
2018-10-06T06:34:47.119Z,11.00
2018-10-06T06:35:47.043Z,11.09
2018-10-06T06:36:46.954Z,11.17
2018-10-06T06:37:46.868Z,11.21
2018-10-06T06:38:46.779Z,11.32
2018-10-06T06:39:46.706Z,11.43
2018-10-06T06:40:46.617Z,11.46
2018-10-06T06:41:46.543Z,11.57
2018-10-06T06:42:46.454Z,11.64
2018-10-06T06:43:46.458Z,11.67
2018-10-06T06:44:46.293Z,11.78
2018-10-06T06:45:46.205Z,11.82
2018-10-06T06:46:46.120Z,11.95
2018-10-06T06:47:46.044Z,11.99
2018-10-06T06:48:45.958Z,11.91
2018-10-06T06:49:45.880Z,12.01
2018-10-06T06:50:45.794Z,12.13
2018-10-06T06:51:45.705Z,12.10
2018-10-06T06:52:45.630Z,12.23
2018-10-06T06:53:45.552Z,12.19
2018-10-06T06:54:45.487Z,12.21
2018-10-06T06:55:45.382Z,12.35
2018-10-06T06:56:45.294Z,12.41
2018-10-06T06:57:45.220Z,12.38
2018-10-06T06:58:45.131Z,12.46
2018-10-06T06:59:45.045Z,12.47
2018-10-06T07:00:44.975Z,12.49
2018-10-06T07:01:44.882Z,12.54
2018-10-06T07:02:44.807Z,12.59
2018-10-06T07:03:44.720Z,12.65
2018-10-06T07:04:44.645Z,12.72
2018-10-06T07:05:44.625Z,12.96
2018-10-06T07:06:44.473Z,13.32
2018-10-06T07:07:44.396Z,13.49
2018-10-06T07:08:44.312Z,13.75
2018-10-06T07:09:44.232Z,14.12
2018-10-06T07:10:44.145Z,14.72
2018-10-06T07:11:44.058Z,14.55
2018-10-06T07:12:44.010Z,14.84
2018-10-06T07:13:43.899Z,15.17
2018-10-06T07:14:43.822Z,14.95
2018-10-06T07:15:43.733Z,15.38
2018-10-06T07:16:43.660Z,15.44
2018-10-06T07:17:43.571Z,15.34
2018-10-06T07:18:43.485Z,15.50
2018-10-06T07:19:43.409Z,15.44
2018-10-06T07:20:43.322Z,15.69
2018-10-06T07:21:43.251Z,16.07
2018-10-06T07:22:43.159Z,15.80
2018-10-06T07:23:43.084Z,15.54
2018-10-06T07:24:42.997Z,16.04
2018-10-06T07:25:42.928Z,16.17
2018-10-06T07:26:42.834Z,16.41
2018-10-06T07:27:42.761Z,15.87
2018-10-06T07:28:42.677Z,15.20
2018-10-06T07:29:42.598Z,15.21
2018-10-06T07:30:42.524Z,14.91
2018-10-06T07:31:42.435Z,14.65
2018-10-06T07:32:42.350Z,14.68
2018-10-06T07:33:42.273Z,14.60
2018-10-06T07:34:42.185Z,14.43
2018-10-06T07:35:42.111Z,14.43
2018-10-06T07:36:42.024Z,14.60
2018-10-06T07:37:41.949Z,14.68
2018-10-06T07:38:41.861Z,14.47
2018-10-06T07:39:41.787Z,14.46
2018-10-06T07:40:41.711Z,14.54
2018-10-06T07:41:41.625Z,14.52
2018-10-06T07:42:41.550Z,14.72
2018-10-06T07:43:41.461Z,14.68
2018-10-06T07:44:41.401Z,14.78
2018-10-06T07:45:41.300Z,14.92
2018-10-06T07:46:41.226Z,14.99
2018-10-06T07:47:41.151Z,15.07
2018-10-06T07:48:41.062Z,15.19
2018-10-06T07:49:40.977Z,15.28
2018-10-06T07:50:40.901Z,15.11
2018-10-06T07:51:40.812Z,15.21
2018-10-06T07:52:40.752Z,15.21
2018-10-06T07:53:40.652Z,15.28
2018-10-06T07:54:40.577Z,15.25
2018-10-06T07:55:40.488Z,15.29
2018-10-06T07:56:40.417Z,15.29
2018-10-06T07:57:40.328Z,15.43
2018-10-06T07:58:40.252Z,15.56
2018-10-06T07:59:40.164Z,15.57
2018-10-06T08:00:40.092Z,15.68
2018-10-06T08:01:40.014Z,15.76
2018-10-06T08:02:39.928Z,15.90
2018-10-06T08:03:39.852Z,16.23
2018-10-06T08:04:39.767Z,16.57
2018-10-06T08:05:39.678Z,16.68
2018-10-06T08:06:39.605Z,16.73
2018-10-06T08:07:39.514Z,16.71
2018-10-06T08:08:39.440Z,16.64
2018-10-06T08:09:39.353Z,16.53
2018-10-06T08:10:39.284Z,16.71
2018-10-06T08:11:39.190Z,16.94
2018-10-06T08:12:39.114Z,17.26
2018-10-06T08:13:39.040Z,17.81
2018-10-06T08:14:38.952Z,17.96
2018-10-06T08:15:38.878Z,17.95
2018-10-06T08:16:38.789Z,18.07
2018-10-06T08:17:38.715Z,18.26
2018-10-06T08:18:38.629Z,18.81
2018-10-06T08:19:38.554Z,18.60
2018-10-06T08:20:38.467Z,19.02
2018-10-06T08:21:38.407Z,18.65
2018-10-06T08:22:38.316Z,18.48
2018-10-06T08:23:38.231Z,18.72
2018-10-06T08:24:38.154Z,19.04
2018-10-06T08:25:38.079Z,18.58
2018-10-06T08:26:37.992Z,18.69
2018-10-06T08:27:37.917Z,18.78
2018-10-06T08:28:37.842Z,18.54
2018-10-06T08:29:37.758Z,18.50
2018-10-06T08:30:37.683Z,18.76
2018-10-06T08:31:37.604Z,19.22
2018-10-06T08:32:37.517Z,19.33
2018-10-06T08:33:37.442Z,19.73
2018-10-06T08:34:37.367Z,20.08
2018-10-06T08:35:37.291Z,20.61
2018-10-06T08:36:37.208Z,20.57
2018-10-06T08:37:37.134Z,21.12
2018-10-06T08:38:37.056Z,21.42
2018-10-06T08:39:36.968Z,21.71
2018-10-06T08:40:36.893Z,22.12
2018-10-06T08:41:36.830Z,21.91
2018-10-06T08:42:36.795Z,21.74
2018-10-06T08:43:36.656Z,21.50
2018-10-06T08:44:36.581Z,21.65
2018-10-06T08:45:36.510Z,21.47
2018-10-06T08:46:36.432Z,21.47
2018-10-06T08:47:36.357Z,21.40
2018-10-06T08:48:36.270Z,21.54
2018-10-06T08:49:36.230Z,21.40
2018-10-06T08:50:36.119Z,21.17
2018-10-06T08:51:36.044Z,20.89
2018-10-06T08:52:35.982Z,20.42
2018-10-06T08:53:35.894Z,20.17
2018-10-06T08:54:35.818Z,20.21
2018-10-06T08:55:35.732Z,19.94
2018-10-06T08:56:35.661Z,19.84
2018-10-06T08:57:35.583Z,19.66
2018-10-06T08:58:35.510Z,19.43
2018-10-06T08:59:35.420Z,19.02
2018-10-06T09:00:35.345Z,18.87
2018-10-06T09:01:35.270Z,18.84
2018-10-06T09:02:35.197Z,18.75
2018-10-06T09:03:35.122Z,18.73
2018-10-06T09:04:35.033Z,18.66
2018-10-06T09:05:34.961Z,18.85
2018-10-06T09:06:34.884Z,18.72
2018-10-06T09:07:34.813Z,18.66
2018-10-06T09:08:34.734Z,18.70
2018-10-06T09:09:34.647Z,18.65
2018-10-06T09:10:34.572Z,18.62
2018-10-06T09:11:34.496Z,18.39
2018-10-06T09:12:34.426Z,18.48
2018-10-06T09:13:34.334Z,18.52
2018-10-06T09:14:34.261Z,18.82
2018-10-06T09:15:34.185Z,18.87
2018-10-06T09:16:34.101Z,18.65
2018-10-06T09:17:34.022Z,18.87
2018-10-06T09:18:33.947Z,19.04
2018-10-06T09:19:33.886Z,18.66
2018-10-06T09:20:33.787Z,18.75
2018-10-06T09:21:33.710Z,18.88
2018-10-06T09:22:33.636Z,19.04
2018-10-06T09:23:33.549Z,19.14
2018-10-06T09:24:33.474Z,19.29
2018-10-06T09:25:33.397Z,19.11
2018-10-06T09:26:33.323Z,19.02
2018-10-06T09:27:33.238Z,19.00
2018-10-06T09:28:33.165Z,18.88
2018-10-06T09:29:33.086Z,19.04
2018-10-06T09:30:32.998Z,19.25
2018-10-06T09:31:32.926Z,19.40
2018-10-06T09:32:32.851Z,19.81
2018-10-06T09:33:32.766Z,19.92
2018-10-06T09:34:32.686Z,19.74
2018-10-06T09:35:32.612Z,19.63
2018-10-06T09:36:32.527Z,19.61
2018-10-06T09:37:32.450Z,19.71
2018-10-06T09:38:32.374Z,19.55
2018-10-06T09:39:32.315Z,19.71
2018-10-06T09:40:32.217Z,19.80
2018-10-06T09:41:32.138Z,19.91
2018-10-06T09:42:32.086Z,20.06
2018-10-06T09:43:31.974Z,19.91
2018-10-06T09:44:31.913Z,19.98
2018-10-06T09:45:31.825Z,19.95
2018-10-06T09:46:31.738Z,19.86
2018-10-06T09:47:31.664Z,19.88
2018-10-06T09:48:31.590Z,20.06
2018-10-06T09:49:31.514Z,20.03
2018-10-06T09:50:31.425Z,19.94
2018-10-06T09:51:31.351Z,19.88
2018-10-06T09:52:31.275Z,19.83
2018-10-06T09:53:31.231Z,19.92
2018-10-06T09:54:31.115Z,20.10
2018-10-06T09:55:31.043Z,20.03
2018-10-06T09:56:30.964Z,20.14
2018-10-06T09:57:30.877Z,20.11
2018-10-06T09:58:30.815Z,20.23
2018-10-06T09:59:30.798Z,20.35
2018-10-06T10:00:30.640Z,20.29
2018-10-06T10:01:30.565Z,20.11
2018-10-06T10:02:30.490Z,20.36
2018-10-06T10:03:30.403Z,20.32
2018-10-06T10:04:30.327Z,20.24
2018-10-06T10:05:30.354Z,20.31
2018-10-06T10:06:30.177Z,20.23
2018-10-06T10:07:30.100Z,20.39
2018-10-06T10:08:30.018Z,20.47
2018-10-06T10:09:29.986Z,20.69
2018-10-06T10:10:29.866Z,20.98
2018-10-06T10:11:29.788Z,21.19
2018-10-06T10:12:29.713Z,21.13
2018-10-06T10:13:29.628Z,20.92
2018-10-06T10:14:29.542Z,20.92
2018-10-06T10:15:29.573Z,21.01
2018-10-06T10:16:29.391Z,20.80
2018-10-06T10:17:29.394Z,20.91
2018-10-06T10:18:29.335Z,21.10
2018-10-06T10:19:29.154Z,21.22
2018-10-06T10:20:29.079Z,21.43
2018-10-06T10:21:29.004Z,21.92
2018-10-06T10:22:29.052Z,21.99
2018-10-06T10:23:28.899Z,21.86
2018-10-06T10:24:28.768Z,21.74
2018-10-06T10:25:28.693Z,21.82
2018-10-06T10:26:28.610Z,21.71
2018-10-06T10:27:28.529Z,21.94
2018-10-06T10:28:28.540Z,22.24
2018-10-06T10:29:28.393Z,22.12
2018-10-06T10:30:28.306Z,22.05
2018-10-06T10:31:28.219Z,22.31
2018-10-06T10:32:28.144Z,22.33
2018-10-06T10:33:28.068Z,22.55
2018-10-06T10:34:28.048Z,22.36
2018-10-06T10:35:27.920Z,22.28
2018-10-06T10:36:27.844Z,22.55
2018-10-06T10:37:27.790Z,22.72
2018-10-06T10:38:27.686Z,22.68
2018-10-06T10:39:27.670Z,22.88
2018-10-06T10:40:27.544Z,23.09
2018-10-06T10:41:27.456Z,23.13
2018-10-06T10:42:27.382Z,22.91
2018-10-06T10:43:27.306Z,23.32
2018-10-06T10:44:27.254Z,23.50
2018-10-06T10:45:27.145Z,23.72
2018-10-06T10:46:27.070Z,23.85
2018-10-06T10:47:26.995Z,23.32
2018-10-06T10:48:26.962Z,22.95
2018-10-06T10:49:26.892Z,23.27
2018-10-06T10:50:26.773Z,23.40
2018-10-06T10:51:26.696Z,22.95
2018-10-06T10:52:26.621Z,22.92
2018-10-06T10:53:26.546Z,23.38
2018-10-06T10:54:26.519Z,23.20
2018-10-06T10:55:26.466Z,23.28
2018-10-06T10:56:26.323Z,23.10
2018-10-06T10:57:26.247Z,23.39
2018-10-06T10:58:26.165Z,23.33
2018-10-06T10:59:26.109Z,23.43
2018-10-06T11:00:26.028Z,23.58
2018-10-06T11:01:25.934Z,23.23
2018-10-06T11:02:25.859Z,22.75
2018-10-06T11:03:25.783Z,22.58
2018-10-06T11:04:25.709Z,22.40
2018-10-06T11:05:25.635Z,22.31
2018-10-06T11:06:25.562Z,22.30
2018-10-06T11:07:25.485Z,22.55
2018-10-06T11:08:25.409Z,22.72
2018-10-06T11:09:25.335Z,22.58
2018-10-06T11:10:25.261Z,22.64
2018-10-06T11:11:25.195Z,22.72
2018-10-06T11:12:25.124Z,22.67
2018-10-06T11:13:25.035Z,22.64
2018-10-06T11:14:24.964Z,22.43
2018-10-06T11:15:24.889Z,22.67
2018-10-06T11:16:24.823Z,22.91
2018-10-06T11:17:24.736Z,23.13
2018-10-06T11:18:24.661Z,23.36
2018-10-06T11:19:24.585Z,23.48
2018-10-06T11:20:24.511Z,23.68
2018-10-06T11:21:24.437Z,23.33
2018-10-06T11:22:24.362Z,23.23
2018-10-06T11:23:24.286Z,23.58
2018-10-06T11:24:24.218Z,23.75
2018-10-06T11:25:24.136Z,23.76
2018-10-06T11:26:24.062Z,23.57
2018-10-06T11:27:23.988Z,24.03
2018-10-06T11:28:23.928Z,23.97
2018-10-06T11:29:23.837Z,23.57
2018-10-06T11:30:23.762Z,23.57
2018-10-06T11:31:23.687Z,23.72
2018-10-06T11:32:23.613Z,23.88
2018-10-06T11:33:23.538Z,23.75
2018-10-06T11:34:23.464Z,23.94
2018-10-06T11:35:23.389Z,23.36
2018-10-06T11:36:23.326Z,23.42
2018-10-06T11:37:23.310Z,23.35
2018-10-06T11:38:23.181Z,23.63
2018-10-06T11:39:23.100Z,23.60
2018-10-06T11:40:23.026Z,23.39
2018-10-06T11:41:22.953Z,23.09
2018-10-06T11:42:22.876Z,23.32
2018-10-06T11:43:22.801Z,23.61
2018-10-06T11:44:22.727Z,23.68
2018-10-06T11:45:22.651Z,23.97
2018-10-06T11:46:22.578Z,24.28
2018-10-06T11:47:22.502Z,24.42
2018-10-06T11:48:22.427Z,24.65
2018-10-06T11:49:22.352Z,24.57
2018-10-06T11:50:22.334Z,24.99
2018-10-06T11:51:22.202Z,25.14
2018-10-06T11:52:22.133Z,24.83
2018-10-06T11:53:22.052Z,25.05
2018-10-06T11:54:21.977Z,25.32
2018-10-06T11:55:21.903Z,25.09
2018-10-06T11:56:21.833Z,25.40
2018-10-06T11:57:21.752Z,25.25
2018-10-06T11:58:21.680Z,25.30
2018-10-06T11:59:21.603Z,25.24
2018-10-06T12:00:21.707Z,25.25
2018-10-06T12:01:21.466Z,24.78
2018-10-06T12:02:21.390Z,24.83
2018-10-06T12:03:21.316Z,24.47
2018-10-06T12:04:21.241Z,24.52
2018-10-06T12:05:21.165Z,24.34
2018-10-06T12:06:21.092Z,24.24
2018-10-06T12:07:21.015Z,24.60
2018-10-06T12:08:20.942Z,23.98
2018-10-06T12:09:20.880Z,23.63
2018-10-06T12:10:20.804Z,23.58
2018-10-06T12:11:20.729Z,23.91
2018-10-06T12:12:20.654Z,23.80
2018-10-06T12:13:20.581Z,23.70
2018-10-06T12:14:20.505Z,23.63
2018-10-06T12:15:20.432Z,23.72
2018-10-06T12:16:20.355Z,23.43
2018-10-06T12:17:20.284Z,23.80
2018-10-06T12:18:20.205Z,24.06
2018-10-06T12:19:20.131Z,24.09
2018-10-06T12:20:20.115Z,24.31
2018-10-06T12:21:19.993Z,24.45
2018-10-06T12:22:19.929Z,24.73
2018-10-06T12:23:19.843Z,24.95
2018-10-06T12:24:19.767Z,24.96
2018-10-06T12:25:19.694Z,25.28
2018-10-06T12:26:19.618Z,25.58
2018-10-06T12:27:19.559Z,25.95
2018-10-06T12:28:19.469Z,26.25
2018-10-06T12:29:19.395Z,26.58
2018-10-06T12:30:19.332Z,26.44
2018-10-06T12:31:19.258Z,26.57
2018-10-06T12:32:19.182Z,27.18
2018-10-06T12:33:19.112Z,26.40
2018-10-06T12:34:19.035Z,26.32
2018-10-06T12:35:19.001Z,26.76
2018-10-06T12:36:18.907Z,26.66
2018-10-06T12:37:18.821Z,27.19
2018-10-06T12:38:18.744Z,27.24
2018-10-06T12:39:18.669Z,26.69
2018-10-06T12:40:18.607Z,26.18
2018-10-06T12:41:18.545Z,25.98
2018-10-06T12:42:18.498Z,25.94
2018-10-06T12:43:18.384Z,26.25
2018-10-06T12:44:18.308Z,26.69
2018-10-06T13:04:15.636Z,26.84
2018-10-06T13:05:15.573Z,27.27
2018-10-06T13:07:39.747Z,27.36
2018-10-06T13:08:39.674Z,27.00
2018-10-06T13:09:39.614Z,27.31
2018-10-06T13:10:39.536Z,26.82
2018-10-06T13:13:06.548Z,26.32
2018-10-06T13:14:46.386Z,27.29
2018-10-06T13:15:45.699Z,27.82
2018-10-06T13:16:45.637Z,27.69
2018-10-06T13:17:45.562Z,27.34
2018-10-06T13:18:45.499Z,27.07
2018-10-06T13:19:45.424Z,27.54
2018-10-06T13:20:45.349Z,27.75
2018-10-06T13:21:45.288Z,27.97
2018-10-06T13:22:45.217Z,28.02
2018-10-06T13:23:45.138Z,27.96
2018-10-06T13:24:45.075Z,27.49